GVAC/SID METAR and TAF weather

Enter ICAO airport designator
Station Type Date Time Source
GVAC METAR 2020/02/21 03:00 UTC NOAA

GVAC 210300Z 04014KT 8000 SCT014 20/16 Q1014 NOSIG


Station Type Date Time Source
GVAC Decoded METAR 2020/02/21 03:00 UTC NOAA

Sal, Cape Verde (GVAC) 16-44N 022-57W 55M
Feb 20, 2020 - 10:00 PM EST / 2020.02.21 0300 UTC
Wind: from the NE (040 degrees) at 16 MPH (14 KT):0
Visibility: 4 mile(s):0
Sky conditions: partly cloudy
Temperature: 68 F (20 C)
Dew Point: 60 F (16 C)
Relative Humidity: 77%
Pressure (altimeter): 29.94 in. Hg (1014 hPa)
ob: GVAC 210300Z 04014KT 8000 SCT014 20/16 Q1014 NOSIG
cycle: 3

Station Type Date Time Source
GVAC TAF 2020/02/20 12:55 UTC NOAA

TAF GVAC 201100Z 2012/2118 04018KT 9000 FEW014

Example: see airport list